Aérodrome :
LOGIN :

S'inscrire | Disclaimer

   EN    FR    IT 

 










Légende :    VFR   VFR Marginal   IFR   IFR Intensif   IFR Très Intensif
Visi : 
Plafond : 
>= 8 km
>= 3000ft
5 à 8 km
1000 à 3000 ft
1500m à 5 km
500 à 1000 ft
800 à 1500m
200 à 500 ft
< 800m
< 200 ft
Symboles :   Orages  Brouillard  Fortes neiges  Fortes précipitations  Vent > 20 kt
SIGMETs :   Divers  Orages  Givrage  Turbulence  Onde Orograph.  Cendres Volcan.






- Altitude de l'aérodrome : 53 ft
- Code IATA : LBC


EDHL - Lübeck

DERNIER METAR :
  • 200650Z 29012KT 9999 FEW039 SCT044 01/M05 Q1015

METARs EXPIRÉS :
  • 200620Z AUTO 30014KT 270V330 9999 // FEW043/// 01/M05 Q1014
  • 200550Z AUTO 30014KT 9999 // FEW038/// 01/M04 Q1014
  • 200520Z AUTO 30013KT 270V330 9999 // FEW036/// 01/M04 Q1013
  • 200450Z AUTO 30017G27KT 270V330 9999 // FEW025/// SCT031/// 01/M03 Q1013
  • 200420Z AUTO 29018G36KT 260V320 9999 // FEW028/// BKN035/// BKN054/// 01/M03 Q1013
  • 200350Z AUTO 30015KT 270V330 9999 // FEW030/// BKN077/// 01/M02 Q1013

Prévision TAF périmée.



MET'MAP, la Météo Aéronautique d'un coup d'oeil ! - Copyright ORBIFLY Décembre 2007 - Disclaimer

ORBIFLY MET'MAP TEAM :

Programmation & Développement : Alexandra Zaïnal
Sur une idée originale de : Baudouin d'Aumeries
Assistance à la programmation : Marc-Olivier Méhu
Soutien technique & logistique : Manuel Goepfert

Contact : metmap@orbifly.com




SOURCES & CREDITS :

   NOAA